KSTS/STS METAR and TAF weather

Enter ICAO airport designator
Station Type Date Time Source
KSTS METAR 2019/06/18 14:53 UTC NOAA

KSTS 181453Z 19004KT 10SM FEW010 14/12 A2994 RMK AO2 SLP134 T01440122 53019


Station Type Date Time Source
KSTS Decoded METAR 2019/06/18 14:53 UTC NOAA

SANTA ROSA SONOMA COUNTY, CA, United States (KSTS) 38-30N 122-49W 39M
Jun 18, 2019 - 10:53 AM EDT / 2019.06.18 1453 UTC
Wind: from the S (190 degrees) at 5 MPH (4 KT):0
Visibility: 10 mile(s):0
Sky conditions: mostly clear
Temperature: 57.9 F (14.4 C)
Dew Point: 54.0 F (12.2 C)
Relative Humidity: 86%
Pressure (altimeter): 29.94 in. Hg (1013 hPa)
Pressure tendency: 0.06 inches (1.9 hPa) higher than three hours ago
ob: KSTS 181453Z 19004KT 10SM FEW010 14/12 A2994 RMK AO2 SLP134 T01440122 53019
cycle: 15

Station Type Date Time Source
KSTS TAF 2019/06/18 12:34 UTC NOAA

TAF KSTS 181132Z 1812/1912 00000KT P6SM SKC
FM181800 VRB03KT P6SM SKC
FM182100 18010KT P6SM SKC
FM190500 15006KT P6SM SKC
FM190900 00000KT P6SM OVC007

Example: see airport list